Time;durP1;ratioP1;P1;durP2;ratioP2;P2;SDS_P1;SDS_P2;PMS_P1;PMS_P2;Temp;Humidity;BMP_temperature;BMP_pressure;BME280_temperature;BME280_humidity;BME280_pressure;Samples;Min_cycle;Max_cycle;Signal;HPM_P1;HPM_P2
2022/11/27 10:25:41;;;;;;;20.73;15.10;;;3.40;99.90;;;;;;5064119;27;20367;-78
2022/11/27 10:28:43;;;;;;;21.40;14.63;;;3.60;99.90;;;;;;5063614;28;20243;-76
2022/11/27 10:31:22;;;;;;;20.50;13.60;;;3.70;99.90;;;;;;5030355;28;20189;-79
2022/11/27 10:34:01;;;;;;;21.83;13.50;;;3.80;99.90;;;;;;5063305;28;20203;-77
2022/11/27 10:36:38;;;;;;;18.97;12.43;;;4.00;99.90;;;;;;5063580;28;20182;-77
2022/11/27 10:39:10;;;;;;;26.87;18.23;;;4.10;99.90;;;;;;5062882;28;20189;-79
2022/11/27 10:41:48;;;;;;;21.27;13.83;;;4.30;99.90;;;;;;5065118;28;20272;-79
2022/11/27 10:44:38;;;;;;;19.07;11.70;;;4.40;99.90;;;;;;5056615;28;20556;-79
2022/11/27 10:47:07;;;;;;;19.90;12.33;;;4.50;85.60;;;;;;5064210;28;20206;-78
2022/11/27 10:49:37;;;;;;;19.60;12.60;;;4.60;56.30;;;;;;5064721;28;20178;-82
2022/11/27 10:52:03;;;;;;;22.80;14.30;;;4.70;29.20;;;;;;5059984;28;20198;-81
2022/11/27 10:54:33;;;;;;;18.90;12.40;;;4.70;1.00;;;;;;5063051;28;20665;-80
2022/11/27 10:57:22;;;;;;;18.77;15.13;;;4.80;1.00;;;;;;5063075;28;20185;-78
2022/11/27 11:00:08;;;;;;;19.10;12.17;;;4.90;1.00;;;;;;5060577;28;20186;-81
2022/11/27 11:02:37;;;;;;;16.93;10.57;;;5.00;1.00;;;;;;5063315;28;20593;-80
2022/11/27 11:05:18;;;;;;;16.13;10.87;;;5.00;1.00;;;;;;5063013;28;20801;-80
2022/11/27 11:08:13;;;;;;;17.43;11.43;;;5.00;1.00;;;;;;5064275;28;20209;-81
2022/11/27 11:10:49;;;;;;;17.60;11.20;;;5.00;99.90;;;;;;5060145;28;20208;-81
2022/11/27 11:13:21;;;;;;;15.20;11.10;;;5.10;1.00;;;;;;5063845;28;20385;-81
2022/11/27 11:15:56;;;;;;;15.40;11.63;;;5.00;1.00;;;;;;5059654;28;20190;-79
2022/11/27 11:18:25;;;;;;;16.37;11.13;;;5.00;99.90;;;;;;5059567;28;20698;-83
2022/11/27 11:20:54;;;;;;;11.90;9.87;;;5.20;99.90;;;;;;5057212;28;20190;-81
2022/11/27 11:23:29;;;;;;;17.80;12.30;;;5.30;99.90;;;;;;5057842;28;20275;-76
2022/11/27 11:26:01;;;;;;;17.40;11.33;;;5.20;99.90;;;;;;5061888;28;20268;-79
2022/11/27 11:28:27;;;;;;;14.37;10.80;;;5.20;99.90;;;;;;5062816;28;20364;-80
2022/11/27 11:31:05;;;;;;;13.10;10.47;;;5.30;99.90;;;;;;5062908;28;20178;-80
2022/11/27 11:33:38;;;;;;;15.83;10.73;;;6.20;99.90;;;;;;5059225;28;20606;-82
2022/11/27 11:36:10;;;;;;;16.67;11.50;;;6.30;47.30;;;;;;5051082;28;20186;-77
2022/11/27 11:38:36;;;;;;;17.03;13.17;;;5.30;1.00;;;;;;5045879;28;20275;-79
2022/11/27 11:41:05;;;;;;;18.23;11.80;;;5.30;1.00;;;;;;5047099;28;20200;-81
2022/11/27 11:43:34;;;;;;;16.73;11.87;;;5.40;1.00;;;;;;5042589;28;20240;-80
2022/11/27 11:46:07;;;;;;;13.17;10.43;;;6.70;1.00;;;;;;5049434;28;20236;-78
2022/11/27 11:48:33;;;;;;;14.63;9.73;;;5.50;99.90;;;;;;5048560;28;20181;-77
2022/11/27 11:51:11;;;;;;;13.87;9.60;;;5.60;99.90;;;;;;5048508;28;20231;-79
2022/11/27 11:53:39;;;;;;;11.40;8.63;;;5.60;1.00;;;;;;5050068;28;20248;-81
2022/11/27 11:56:34;;;;;;;12.10;9.67;;;6.30;99.30;;;;;;5048467;28;20967;-77
2022/11/27 11:59:01;;;;;;;13.37;9.57;;;5.60;1.00;;;;;;5050425;28;20182;-80
2022/11/27 12:01:45;;;;;;;13.80;10.43;;;5.70;1.00;;;;;;5048402;28;20218;-79
2022/11/27 12:04:41;;;;;;;13.03;10.00;;;5.60;97.90;;;;;;5048513;28;20297;-77
2022/11/27 12:07:16;;;;;;;13.83;9.73;;;5.60;1.00;;;;;;5047582;28;20242;-81
2022/11/27 12:10:00;;;;;;;12.83;9.33;;;5.70;1.00;;;;;;5049775;28;20182;-80
2022/11/27 12:12:54;;;;;;;12.70;9.67;;;5.80;99.90;;;;;;5049109;28;20202;-80
2022/11/27 12:15:37;;;;;;;12.83;9.60;;;5.90;99.90;;;;;;5047630;28;20723;-80
2022/11/27 12:18:37;;;;;;;14.10;9.30;;;6.00;99.90;;;;;;5047347;28;20182;-79
2022/11/27 12:21:27;;;;;;;13.23;8.83;;;6.10;99.90;;;;;;5048423;28;20272;-75
2022/11/27 12:24:13;;;;;;;11.67;8.40;;;6.20;1.00;;;;;;5048829;28;20300;-80
2022/11/27 12:27:06;;;;;;;11.50;8.47;;;6.30;99.90;;;;;;5048291;28;20185;-79
2022/11/27 12:29:46;;;;;;;10.77;7.77;;;6.40;1.00;;;;;;5047589;28;20549;-80
2022/11/27 12:32:26;;;;;;;8.80;7.70;;;6.40;1.00;;;;;;5045864;28;20242;-82
2022/11/27 12:35:05;;;;;;;11.13;8.33;;;6.50;1.00;;;;;;5049187;28;20679;-78
2022/11/27 12:37:59;;;;;;;11.87;7.63;;;6.60;1.00;;;;;;5039882;28;20190;-82
2022/11/27 12:40:47;;;;;;;9.43;7.80;;;6.60;1.00;;;;;;5046028;28;20183;-82
2022/11/27 12:43:19;;;;;;;11.40;7.23;;;6.70;99.90;;;;;;5048721;28;20241;-77
2022/11/27 12:45:52;;;;;;;8.77;7.10;;;5.90;1.00;;;;;;5044676;28;20194;-77
2022/11/27 12:48:23;;;;;;;11.43;7.67;;;6.70;99.90;;;;;;5036494;28;20197;-77
2022/11/27 12:51:18;;;;;;;8.90;6.97;;;6.60;99.90;;;;;;5048590;28;20193;-79
2022/11/27 12:53:53;;;;;;;9.93;7.20;;;6.80;99.90;;;;;;5044494;28;20637;-79
2022/11/27 12:56:42;;;;;;;9.30;7.77;;;6.70;99.90;;;;;;5046924;28;20277;-79
2022/11/27 12:59:41;;;;;;;9.63;7.53;;;6.90;1.00;;;;;;5044825;28;20194;-80
2022/11/27 13:02:27;;;;;;;11.87;10.30;;;6.70;1.00;;;;;;5042623;28;20680;-80
2022/11/27 13:04:58;;;;;;;11.17;9.73;;;6.70;1.00;;;;;;5042986;28;20305;-81
2022/11/27 13:07:44;;;;;;;21.87;19.67;;;6.90;1.00;;;;;;5042619;28;20179;-79
2022/11/27 13:10:29;;;;;;;15.00;12.83;;;6.80;1.00;;;;;;5043446;28;20212;-81
2022/11/27 13:13:20;;;;;;;11.83;10.63;;;6.80;1.00;;;;;;5036712;28;20578;-80
2022/11/27 13:15:53;;;;;;;10.97;8.90;;;6.70;1.00;;;;;;5035139;28;20209;-76
2022/11/27 13:18:42;;;;;;;13.07;8.47;;;6.70;1.00;;;;;;5041339;28;20193;-79
2022/11/27 13:21:13;;;;;;;11.90;8.60;;;6.60;1.00;;;;;;5041085;28;20195;-78
2022/11/27 13:23:39;;;;;;;11.10;8.67;;;6.60;1.00;;;;;;5042743;28;20222;-80
2022/11/27 13:26:13;;;;;;;11.60;9.80;;;6.60;1.00;;;;;;5037118;28;21094;-79
2022/11/27 13:28:44;;;;;;;13.17;10.17;;;6.40;1.00;;;;;;5045153;28;20784;-80
2022/11/27 13:31:20;;;;;;;13.60;9.93;;;6.40;54.50;;;;;;5043755;28;20836;-79
2022/11/27 13:33:45;;;;;;;12.73;10.83;;;6.50;99.90;;;;;;5045548;28;20213;-78
2022/11/27 13:36:22;;;;;;;14.40;9.17;;;6.60;99.90;;;;;;5044825;28;20186;-78
2022/11/27 13:38:55;;;;;;;14.40;10.37;;;7.30;99.90;;;;;;5043804;28;20189;-78
2022/11/27 13:41:24;;;;;;;12.27;10.10;;;6.70;1.00;;;;;;5042111;28;20189;-80
2022/11/27 13:43:51;;;;;;;11.67;9.10;;;6.70;93.90;;;;;;5038444;28;20213;-78
2022/11/27 13:46:23;;;;;;;13.23;10.17;;;6.40;32.40;;;;;;5045152;28;20186;-77
2022/11/27 13:49:02;;;;;;;20.43;17.50;;;6.40;1.00;;;;;;5046547;28;20656;-78
2022/11/27 13:51:37;;;;;;;15.47;12.37;;;7.10;1.00;;;;;;5043607;28;21226;-78
2022/11/27 13:54:19;;;;;;;17.03;11.97;;;6.60;1.00;;;;;;5044868;28;20529;-76
2022/11/27 13:56:45;;;;;;;14.57;11.10;;;6.50;1.00;;;;;;5043124;28;20289;-78
2022/11/27 13:59:13;;;;;;;35.87;27.87;;;6.70;1.00;;;;;;5046288;28;20316;-76
2022/11/27 14:01:39;;;;;;;15.20;12.37;;;6.60;1.00;;;;;;5045399;28;20397;-78
2022/11/27 14:04:08;;;;;;;13.60;10.53;;;6.60;99.90;;;;;;5046619;28;20459;-79
2022/11/27 14:06:35;;;;;;;10.07;7.87;;;6.50;1.00;;;;;;5044335;28;20275;-80
2022/11/27 14:09:03;;;;;;;15.20;9.37;;;6.40;1.00;;;;;;5046550;28;20411;-78
2022/11/27 14:11:40;;;;;;;9.03;8.03;;;6.40;1.00;;;;;;5045174;28;20257;-80
2022/11/27 14:14:24;;;;;;;12.27;8.83;;;5.70;1.00;;;;;;5045826;28;20197;-80
2022/11/27 14:17:24;;;;;;;12.53;9.97;;;6.40;1.00;;;;;;5047107;28;20190;-77
2022/11/27 14:20:01;;;;;;;15.70;12.97;;;6.30;1.00;;;;;;5048156;28;20189;-79
2022/11/27 14:22:53;;;;;;;16.07;10.47;;;6.30;1.00;;;;;;5046025;28;20208;-80
2022/11/27 14:25:24;;;;;;;12.03;10.00;;;6.40;1.00;;;;;;5049802;28;20234;-78
2022/11/27 14:27:57;;;;;;;11.90;9.57;;;6.40;1.00;;;;;;5047500;28;20216;-79
2022/11/27 14:30:31;;;;;;;12.00;9.50;;;6.30;1.00;;;;;;5048282;28;20288;-79
2022/11/27 14:32:57;;;;;;;12.27;8.43;;;6.20;1.00;;;;;;5047187;28;20210;-79
2022/11/27 14:35:25;;;;;;;9.83;8.33;;;6.10;1.00;;;;;;5046801;28;20190;-78
2022/11/27 14:37:51;;;;;;;14.03;9.07;;;6.00;1.00;;;;;;5049922;28;20663;-79
2022/11/27 14:40:35;;;;;;;10.03;8.50;;;5.90;1.00;;;;;;5047042;28;20194;-80
2022/11/27 14:43:08;;;;;;;13.23;9.73;;;5.80;1.00;;;;;;5043329;28;20213;-79
2022/11/27 14:45:34;;;;;;;24.80;17.63;;;5.70;35.00;;;;;;5041412;28;20190;-78
2022/11/27 14:48:00;;;;;;;12.97;10.97;;;5.60;99.90;;;;;;5041901;28;20604;-78
2022/11/27 14:50:25;;;;;;;13.70;10.20;;;6.30;99.90;;;;;;5041545;28;20187;-77
2022/11/27 14:52:54;;;;;;;13.23;10.60;;;5.70;99.90;;;;;;5041658;28;20251;-77
2022/11/27 14:55:21;;;;;;;14.00;10.43;;;5.70;99.90;;;;;;5042407;28;20186;-78
2022/11/27 14:57:48;;;;;;;15.73;13.83;;;5.70;99.90;;;;;;5040211;28;20205;-79
2022/11/27 15:00:20;;;;;;;17.17;14.13;;;5.80;1.00;;;;;;5046505;28;20183;-78
2022/11/27 15:02:48;;;;;;;28.23;23.97;;;5.80;1.00;;;;;;5046862;28;20280;-79
2022/11/27 15:05:28;;;;;;;16.13;13.20;;;5.70;1.00;;;;;;5045182;28;20663;-78
2022/11/27 15:07:56;;;;;;;16.13;11.00;;;5.70;1.00;;;;;;5047383;28;20244;-80
2022/11/27 15:10:37;;;;;;;23.37;19.27;;;5.60;1.00;;;;;;5047804;28;20193;-77
2022/11/27 15:13:05;;;;;;;21.07;16.77;;;5.70;1.00;;;;;;5051435;28;20201;-79
2022/11/27 15:15:40;;;;;;;39.10;32.50;;;5.70;1.00;;;;;;5049179;28;20269;-77
2022/11/27 15:18:07;;;;;;;60.80;47.50;;;5.60;1.00;;;;;;5049128;28;20189;-77
2022/11/27 15:20:39;;;;;;;23.07;18.80;;;5.70;1.00;;;;;;5048345;28;20186;-77
2022/11/27 15:23:23;;;;;;;32.77;27.40;;;5.60;1.00;;;;;;5051906;28;20335;-79
2022/11/27 15:26:13;;;;;;;33.40;29.75;;;5.40;1.00;;;;;;5050217;28;20418;-79
2022/11/27 15:28:42;;;;;;;19.37;14.63;;;5.40;1.00;;;;;;5049791;28;20190;-79
2022/11/27 15:31:24;;;;;;;32.23;23.63;;;5.80;1.00;;;;;;5050083;28;20182;-78
2022/11/27 15:33:56;;;;;;;34.47;25.53;;;5.40;1.00;;;;;;5054442;28;20212;-79
2022/11/27 15:36:22;;;;;;;56.33;40.17;;;5.40;1.00;;;;;;5051565;28;20218;-79
2022/11/27 15:38:50;;;;;;;19.53;14.60;;;5.30;1.00;;;;;;5051954;28;20194;-79
2022/11/27 15:41:21;;;;;;;43.10;30.37;;;5.40;1.00;;;;;;5053941;28;20232;-79
2022/11/27 15:43:47;;;;;;;28.70;20.93;;;5.30;1.00;;;;;;5055417;28;20240;-78
2022/11/27 15:46:13;;;;;;;57.53;41.90;;;5.20;1.00;;;;;;5052327;28;20228;-78
2022/11/27 15:48:39;;;;;;;22.20;17.43;;;5.30;1.00;;;;;;5054459;28;20214;-77
2022/11/27 15:51:05;;;;;;;20.50;16.73;;;5.30;1.00;;;;;;5054069;28;20273;-79
2022/11/27 15:53:30;;;;;;;23.97;17.73;;;5.80;1.00;;;;;;5055754;28;20298;-79
2022/11/27 15:55:59;;;;;;;26.37;18.27;;;6.00;1.00;;;;;;5055734;28;20190;-79
2022/11/27 15:58:24;;;;;;;26.73;19.37;;;5.40;99.90;;;;;;5055487;28;20194;-78
2022/11/27 16:00:50;;;;;;;24.73;18.17;;;5.40;99.90;;;;;;5051889;28;20192;-78
2022/11/27 16:03:16;;;;;;;20.07;13.43;;;5.30;99.90;;;;;;5049844;28;20206;-78
2022/11/27 16:05:41;;;;;;;17.17;13.00;;;5.20;99.90;;;;;;5045842;28;20949;-79
2022/11/27 16:08:10;;;;;;;16.47;11.83;;;5.10;1.00;;;;;;5052649;28;20183;-79
2022/11/27 16:10:39;;;;;;;13.53;10.17;;;4.90;1.00;;;;;;5048969;28;20194;-78
2022/11/27 16:13:05;;;;;;;14.93;9.57;;;4.90;1.00;;;;;;5052236;28;20209;-78
2022/11/27 16:15:31;;;;;;;10.67;7.83;;;4.90;1.00;;;;;;5049374;28;20186;-79
2022/11/27 16:17:57;;;;;;;17.23;13.83;;;4.70;1.00;;;;;;5051997;28;20309;-79
2022/11/27 16:20:23;;;;;;;13.87;10.53;;;4.70;1.00;;;;;;5054748;28;20212;-79
2022/11/27 16:22:49;;;;;;;16.10;12.87;;;4.60;1.00;;;;;;5053997;28;20206;-78
2022/11/27 16:25:14;;;;;;;13.90;8.97;;;4.70;1.00;;;;;;5055537;28;20248;-79
2022/11/27 16:27:40;;;;;;;11.73;8.60;;;4.70;1.00;;;;;;5055248;28;20182;-79
2022/11/27 16:30:06;;;;;;;10.43;7.67;;;4.60;1.00;;;;;;5055347;28;20185;-79
2022/11/27 16:32:32;;;;;;;13.50;8.87;;;4.60;1.00;;;;;;5054672;28;20206;-79
2022/11/27 16:34:57;;;;;;;11.53;8.07;;;4.60;1.00;;;;;;5054498;28;20190;-81
2022/11/27 16:37:23;;;;;;;11.73;8.97;;;4.60;1.00;;;;;;5050087;28;20186;-78
2022/11/27 16:39:49;;;;;;;68.10;40.00;;;5.00;1.00;;;;;;5050505;28;20273;-79
2022/11/27 16:42:14;;;;;;;90.53;52.47;;;4.80;1.00;;;;;;5050560;28;20627;-78
2022/11/27 16:44:41;;;;;;;39.27;33.37;;;4.80;1.00;;;;;;5052884;28;20210;-78
2022/11/27 16:47:07;;;;;;;26.33;23.53;;;4.90;1.00;;;;;;5051143;28;20592;-78
2022/11/27 16:49:32;;;;;;;27.93;23.57;;;5.00;1.00;;;;;;5051971;28;20189;-78
2022/11/27 16:51:58;;;;;;;25.17;22.67;;;5.10;99.90;;;;;;5052167;28;20237;-78
2022/11/27 16:54:24;;;;;;;16.23;14.33;;;5.10;99.90;;;;;;5051820;28;20179;-78
2022/11/27 16:56:50;;;;;;;22.33;19.93;;;5.10;99.90;;;;;;5046832;28;20194;-80
2022/11/27 16:59:16;;;;;;;19.40;17.33;;;5.10;99.90;;;;;;5051905;28;20236;-79
2022/11/27 17:01:42;;;;;;;35.07;31.83;;;5.20;99.90;;;;;;5050359;28;21107;-78
2022/11/27 17:04:13;;;;;;;23.00;20.90;;;5.10;99.90;;;;;;5046827;28;20259;-78
2022/11/27 17:06:38;;;;;;;15.13;13.60;;;5.50;99.90;;;;;;5051193;28;20269;-78
2022/11/27 17:09:06;;;;;;;17.47;15.63;;;5.10;99.90;;;;;;5049995;28;20247;-79
2022/11/27 17:11:34;;;;;;;16.50;14.80;;;5.00;99.90;;;;;;5048170;28;20186;-78
2022/11/27 17:14:03;;;;;;;24.83;20.27;;;5.00;99.90;;;;;;5051451;28;20229;-78
2022/11/27 17:16:29;;;;;;;20.07;14.27;;;4.90;99.90;;;;;;5051067;28;20197;-78
2022/11/27 17:18:55;;;;;;;12.97;11.67;;;4.90;99.90;;;;;;5047004;28;20661;-78
2022/11/27 17:21:32;;;;;;;17.57;12.10;;;4.90;99.90;;;;;;5050713;28;20204;-78
2022/11/27 17:24:03;;;;;;;16.40;11.87;;;4.90;99.90;;;;;;5048407;28;20217;-78
2022/11/27 17:26:30;;;;;;;16.27;11.53;;;5.00;99.90;;;;;;5050294;28;20408;-78
2022/11/27 17:28:58;;;;;;;13.43;11.97;;;5.00;99.90;;;;;;5050016;28;20241;-78
2022/11/27 17:31:31;;;;;;;11.70;10.50;;;5.50;99.90;;;;;;5046409;28;20179;-78
2022/11/27 17:33:57;;;;;;;15.23;11.73;;;5.50;99.90;;;;;;5044613;28;20198;-79
2022/11/27 17:36:24;;;;;;;13.37;10.93;;;5.10;99.90;;;;;;5050109;28;20190;-78
2022/11/27 17:38:50;;;;;;;12.57;9.87;;;5.40;99.90;;;;;;5050267;28;20194;-78
2022/11/27 17:41:17;;;;;;;9.93;8.83;;;5.10;99.90;;;;;;5049701;28;20184;-78
2022/11/27 17:43:42;;;;;;;12.40;10.83;;;5.10;99.90;;;;;;5048851;28;20435;-79
2022/11/27 17:46:19;;;;;;;13.00;9.53;;;5.10;99.90;;;;;;5048208;28;20436;-77
2022/11/27 17:48:45;;;;;;;13.73;10.23;;;5.00;99.90;;;;;;5048564;28;20493;-79
2022/11/27 17:51:11;;;;;;;11.90;9.53;;;5.10;99.90;;;;;;5048684;28;20207;-78
2022/11/27 17:53:37;;;;;;;13.37;11.63;;;5.10;99.90;;;;;;5046881;28;20217;-79
2022/11/27 17:56:05;;;;;;;12.33;9.70;;;5.20;99.90;;;;;;5039518;28;21494;-78
2022/11/27 17:58:31;;;;;;;13.10;9.53;;;5.10;99.90;;;;;;5048460;28;20193;-78
2022/11/27 18:00:56;;;;;;;12.67;9.13;;;5.10;99.90;;;;;;5040489;28;20648;-78
2022/11/27 18:03:22;;;;;;;11.47;8.67;;;5.10;99.90;;;;;;5047207;28;20234;-79
2022/11/27 18:05:48;;;;;;;10.57;8.97;;;5.00;99.90;;;;;;5043225;28;20680;-78
2022/11/27 18:08:14;;;;;;;12.53;8.57;;;4.90;99.90;;;;;;5049187;28;20197;-79
2022/11/27 18:10:39;;;;;;;14.10;9.17;;;4.90;99.90;;;;;;5049084;28;20257;-78
2022/11/27 18:13:05;;;;;;;12.50;9.23;;;4.90;99.90;;;;;;5048714;28;20244;-79
2022/11/27 18:15:32;;;;;;;13.70;9.27;;;4.90;99.90;;;;;;5048293;28;20571;-78
2022/11/27 18:17:58;;;;;;;12.53;8.73;;;4.90;99.90;;;;;;5048050;28;20194;-78
2022/11/27 18:20:24;;;;;;;11.17;8.97;;;5.10;99.90;;;;;;5050403;28;20616;-80
2022/11/27 18:22:53;;;;;;;10.47;8.77;;;5.10;99.90;;;;;;5048241;28;20312;-79
2022/11/27 18:25:18;;;;;;;13.97;9.13;;;5.10;99.90;;;;;;5051284;28;20210;-78
2022/11/27 18:27:44;;;;;;;13.27;9.10;;;5.00;99.90;;;;;;5049792;28;20192;-79
2022/11/27 18:30:10;;;;;;;11.73;8.57;;;5.00;99.90;;;;;;5048894;28;20174;-79
2022/11/27 18:32:37;;;;;;;12.70;11.02;;;5.10;99.90;;;;;;5041884;28;20498;-79
2022/11/27 18:35:03;;;;;;;14.70;9.87;;;5.10;99.90;;;;;;5046296;28;21061;-78
2022/11/27 18:37:29;;;;;;;11.60;9.07;;;5.10;99.90;;;;;;5048800;28;20224;-78
2022/11/27 18:39:55;;;;;;;16.47;10.60;;;5.00;99.90;;;;;;5048206;28;20201;-79
2022/11/27 18:42:20;;;;;;;13.38;11.25;;;5.10;99.90;;;;;;5045494;28;20549;-78
2022/11/27 18:44:46;;;;;;;12.60;9.87;;;5.10;99.90;;;;;;5046761;28;20685;-78
2022/11/27 18:47:13;;;;;;;13.43;10.77;;;5.10;99.90;;;;;;5049172;28;20189;-79
2022/11/27 18:49:39;;;;;;;14.27;10.03;;;5.10;99.90;;;;;;5048090;28;20562;-78
2022/11/27 18:52:06;;;;;;;14.30;9.23;;;5.20;99.90;;;;;;5049202;28;20185;-79
2022/11/27 18:54:32;;;;;;;12.67;9.40;;;5.10;99.90;;;;;;5049379;28;20270;-78
2022/11/27 18:56:58;;;;;;;40.10;24.97;;;5.10;99.90;;;;;;5048698;28;20265;-78
2022/11/27 18:59:24;;;;;;;31.23;22.10;;;5.10;99.90;;;;;;5050284;28;20275;-78
2022/11/27 19:01:49;;;;;;;14.60;12.60;;;5.10;99.90;;;;;;5049611;28;20182;-79
2022/11/27 19:04:15;;;;;;;29.33;24.00;;;5.20;99.90;;;;;;5044523;28;20655;-79
2022/11/27 19:06:42;;;;;;;18.57;14.80;;;5.20;99.90;;;;;;5050268;28;20193;-79
2022/11/27 19:09:07;;;;;;;15.73;11.30;;;5.10;99.90;;;;;;5051142;28;20190;-79
2022/11/27 19:11:34;;;;;;;15.17;10.57;;;5.00;99.90;;;;;;5049958;28;20193;-79
2022/11/27 19:14:00;;;;;;;16.30;12.10;;;5.10;99.90;;;;;;5050413;28;20248;-79
2022/11/27 19:16:29;;;;;;;13.13;10.60;;;5.10;99.90;;;;;;5051179;28;20190;-79
2022/11/27 19:18:57;;;;;;;14.57;11.20;;;5.20;99.90;;;;;;5051227;28;20201;-79
2022/11/27 19:21:24;;;;;;;13.80;10.07;;;5.20;99.90;;;;;;5051183;28;20448;-79
2022/11/27 19:23:52;;;;;;;17.90;11.00;;;5.20;99.90;;;;;;5047613;28;20775;-79
2022/11/27 19:26:20;;;;;;;15.63;11.97;;;5.10;99.90;;;;;;5034691;28;20593;-79
2022/11/27 19:28:55;;;;;;;13.73;10.47;;;5.00;99.90;;;;;;5050900;28;20182;-78
2022/11/27 19:31:21;;;;;;;16.13;11.90;;;5.00;99.90;;;;;;5051046;28;20623;-79
2022/11/27 19:33:57;;;;;;;18.30;11.33;;;5.00;99.90;;;;;;5051983;28;20202;-79
2022/11/27 19:36:24;;;;;;;20.67;12.97;;;5.00;99.90;;;;;;5050542;28;20214;-79
2022/11/27 19:38:58;;;;;;;17.17;12.47;;;5.00;99.90;;;;;;5052382;28;20182;-79
2022/11/27 19:41:25;;;;;;;16.10;12.30;;;5.00;99.90;;;;;;5049624;28;20192;-79
2022/11/27 19:43:51;;;;;;;15.83;10.87;;;4.90;99.90;;;;;;5045364;28;20297;-78
2022/11/27 19:46:28;;;;;;;15.40;10.83;;;5.00;99.90;;;;;;5051300;28;20669;-79
2022/11/27 19:48:58;;;;;;;16.63;10.67;;;4.90;99.90;;;;;;5052469;28;20185;-79
2022/11/27 19:51:25;;;;;;;17.53;10.90;;;4.90;99.90;;;;;;5051452;28;20188;-78
2022/11/27 19:53:51;;;;;;;13.83;10.20;;;4.90;99.90;;;;;;5050377;28;20283;-79
2022/11/27 19:56:17;;;;;;;14.03;9.97;;;5.00;99.90;;;;;;5047509;28;20228;-78
2022/11/27 19:58:42;;;;;;;18.97;11.07;;;5.00;99.90;;;;;;5050389;28;20201;-79
2022/11/27 20:01:09;;;;;;;14.03;10.17;;;4.90;99.90;;;;;;5049692;28;20188;-79
2022/11/27 20:03:35;;;;;;;13.50;9.83;;;5.00;99.90;;;;;;5049825;28;20214;-78
2022/11/27 20:06:06;;;;;;;14.93;11.53;;;5.00;99.90;;;;;;5046684;28;20187;-78
2022/11/27 20:08:32;;;;;;;15.60;11.27;;;5.00;99.90;;;;;;5050002;28;20178;-79
2022/11/27 20:10:58;;;;;;;18.13;14.03;;;5.10;99.90;;;;;;5048821;28;20204;-79
2022/11/27 20:13:24;;;;;;;18.57;14.73;;;5.00;99.90;;;;;;5050170;28;20206;-79
2022/11/27 20:15:51;;;;;;;35.77;23.80;;;5.10;99.90;;;;;;5049894;28;20186;-78
2022/11/27 20:18:17;;;;;;;20.60;14.10;;;5.00;99.90;;;;;;5050201;28;20742;-79
2022/11/27 20:20:43;;;;;;;16.87;12.00;;;4.90;99.90;;;;;;5049264;28;20474;-79
2022/11/27 20:23:09;;;;;;;17.07;12.10;;;5.00;99.90;;;;;;5048458;28;20727;-79
2022/11/27 20:25:38;;;;;;;15.83;11.47;;;5.00;99.90;;;;;;5049975;28;20237;-78
2022/11/27 20:28:04;;;;;;;16.10;10.93;;;5.00;99.90;;;;;;5048123;28;20186;-78
2022/11/27 20:30:30;;;;;;;17.27;10.60;;;5.00;99.90;;;;;;5046121;28;20536;-79
2022/11/27 20:32:56;;;;;;;14.37;10.73;;;5.00;99.90;;;;;;5045963;28;20197;-79
2022/11/27 20:35:21;;;;;;;14.70;11.10;;;5.00;99.90;;;;;;5047365;28;20212;-79
2022/11/27 20:37:47;;;;;;;13.37;10.23;;;5.00;99.90;;;;;;5040806;28;20274;-78
2022/11/27 20:40:13;;;;;;;15.77;10.93;;;4.90;99.90;;;;;;5047953;28;20186;-78
2022/11/27 20:42:38;;;;;;;13.80;9.87;;;4.90;99.90;;;;;;5041485;28;20217;-79
2022/11/27 20:45:04;;;;;;;16.13;10.87;;;5.00;99.90;;;;;;5049063;28;20213;-79
2022/11/27 20:47:30;;;;;;;13.23;10.00;;;5.00;99.90;;;;;;5049906;28;20210;-79
2022/11/27 20:49:56;;;;;;;14.30;9.80;;;5.10;99.90;;;;;;5050297;28;20630;-78
2022/11/27 20:52:21;;;;;;;12.33;9.50;;;5.10;99.90;;;;;;5048887;28;20228;-79
2022/11/27 20:54:47;;;;;;;15.43;10.43;;;5.00;99.90;;;;;;5049552;28;20262;-78
2022/11/27 20:57:13;;;;;;;14.27;10.57;;;5.10;99.90;;;;;;5046392;28;20242;-79
2022/11/27 20:59:40;;;;;;;13.50;10.00;;;5.10;99.90;;;;;;5047355;28;20264;-78
2022/11/27 21:02:09;;;;;;;13.60;9.73;;;4.90;99.90;;;;;;5042649;28;20236;-79
2022/11/27 21:04:34;;;;;;;21.00;15.37;;;4.90;99.90;;;;;;5044391;28;20852;-79
2022/11/27 21:07:00;;;;;;;20.67;16.03;;;4.90;99.90;;;;;;5046876;28;20246;-78
2022/11/27 21:09:26;;;;;;;15.53;12.50;;;4.90;99.90;;;;;;5047901;28;20854;-79
2022/11/27 21:11:51;;;;;;;77.07;48.07;;;4.80;99.90;;;;;;5050620;28;20461;-78
2022/11/27 21:14:17;;;;;;;31.37;19.93;;;4.90;99.90;;;;;;5048900;28;20232;-78
2022/11/27 21:16:47;;;;;;;42.80;27.27;;;5.10;99.90;;;;;;5048130;28;20674;-78
2022/11/27 21:19:23;;;;;;;39.90;24.63;;;4.90;99.90;;;;;;5047371;28;20569;-78
2022/11/27 21:21:51;;;;;;;65.77;34.40;;;4.90;99.90;;;;;;5045516;28;20194;-78
2022/11/27 21:24:18;;;;;;;32.10;19.43;;;4.90;99.90;;;;;;5048196;28;20217;-78
2022/11/27 21:26:44;;;;;;;72.67;38.50;;;4.90;99.90;;;;;;5047705;28;20190;-78
2022/11/27 21:29:11;;;;;;;59.67;33.63;;;4.90;99.90;;;;;;5049421;28;20193;-78
2022/11/27 21:31:37;;;;;;;63.03;33.90;;;5.00;99.90;;;;;;5049911;28;20533;-78
2022/11/27 21:34:05;;;;;;;41.03;24.57;;;5.00;99.90;;;;;;5050404;28;20222;-78
2022/11/27 21:36:34;;;;;;;41.23;27.53;;;4.90;99.90;;;;;;5050945;28;20202;-78
2022/11/27 21:39:02;;;;;;;45.10;26.57;;;4.90;99.90;;;;;;5052189;28;20232;-79
2022/11/27 21:41:30;;;;;;;44.60;26.10;;;4.90;99.90;;;;;;5050622;28;20281;-78
2022/11/27 21:43:58;;;;;;;120.87;57.67;;;5.00;99.90;;;;;;5047557;28;20209;-78
2022/11/27 21:46:25;;;;;;;50.70;30.10;;;5.10;99.90;;;;;;5050583;28;20513;-78
2022/11/27 21:48:54;;;;;;;76.60;45.30;;;5.10;99.90;;;;;;5051693;28;20233;-79
2022/11/27 21:51:21;;;;;;;54.50;34.43;;;5.10;99.90;;;;;;5047139;28;20186;-78
2022/11/27 21:53:49;;;;;;;113.27;55.73;;;5.00;99.90;;;;;;5046241;28;20224;-78
2022/11/27 21:56:17;;;;;;;70.60;40.63;;;5.20;99.90;;;;;;5046267;28;20711;-79
2022/11/27 21:58:43;;;;;;;30.70;20.93;;;5.10;99.90;;;;;;5049875;28;20303;-79
2022/11/27 22:01:14;;;;;;;48.70;30.37;;;5.10;99.90;;;;;;5050670;28;20190;-79
2022/11/27 22:03:40;;;;;;;46.33;28.93;;;5.20;99.90;;;;;;5050487;28;20210;-79
2022/11/27 22:06:11;;;;;;;41.10;25.97;;;5.10;99.90;;;;;;5051275;28;20174;-78
2022/11/27 22:08:38;;;;;;;34.07;21.90;;;5.10;99.90;;;;;;5050187;28;20709;-78
2022/11/27 22:11:09;;;;;;;31.53;21.43;;;5.20;99.90;;;;;;5050225;28;20190;-78
2022/11/27 22:13:35;;;;;;;29.10;19.20;;;5.10;99.90;;;;;;5050171;28;20206;-78
2022/11/27 22:16:06;;;;;;;20.33;15.23;;;5.10;99.90;;;;;;5050389;28;20252;-79
2022/11/27 22:18:32;;;;;;;24.77;16.53;;;5.00;99.90;;;;;;5049233;28;20233;-78
2022/11/27 22:21:02;;;;;;;20.77;14.07;;;5.00;99.90;;;;;;5048424;28;20273;-78
2022/11/27 22:23:28;;;;;;;30.10;21.58;;;5.00;99.90;;;;;;5048455;28;20471;-78
2022/11/27 22:25:54;;;;;;;23.10;15.50;;;5.10;99.90;;;;;;5049295;28;20258;-79
2022/11/27 22:28:19;;;;;;;23.00;15.03;;;5.20;99.90;;;;;;5050601;28;20196;-79
2022/11/27 22:30:45;;;;;;;23.30;15.47;;;5.10;99.90;;;;;;5049298;28;20210;-79
2022/11/27 22:33:11;;;;;;;28.03;16.10;;;5.00;99.90;;;;;;5051005;28;20208;-79
2022/11/27 22:35:36;;;;;;;17.67;11.80;;;5.60;99.90;;;;;;5049504;28;20210;-78
2022/11/27 22:38:02;;;;;;;20.03;13.30;;;4.90;99.90;;;;;;5050125;28;20603;-78
2022/11/27 22:40:27;;;;;;;17.60;11.40;;;4.90;99.90;;;;;;5048456;28;20213;-79
2022/11/27 22:42:53;;;;;;;14.27;10.00;;;4.80;99.90;;;;;;5049974;28;20221;-78
2022/11/27 22:45:19;;;;;;;22.30;12.60;;;4.90;99.90;;;;;;5050691;28;20278;-79
2022/11/27 22:47:45;;;;;;;14.23;10.00;;;4.80;99.90;;;;;;5051322;28;20246;-78
2022/11/27 22:50:10;;;;;;;22.40;11.77;;;4.90;99.90;;;;;;5050738;28;20224;-79
2022/11/27 22:52:36;;;;;;;18.77;11.27;;;4.80;99.90;;;;;;5051470;28;20213;-78
2022/11/27 22:55:02;;;;;;;12.57;9.03;;;4.90;99.90;;;;;;5048643;28;20213;-79
2022/11/27 22:57:28;;;;;;;16.00;10.70;;;4.90;99.90;;;;;;5047415;28;20225;-78
2022/11/27 22:59:53;;;;;;;13.90;9.00;;;5.00;99.90;;;;;;5050266;28;20186;-79
2022/11/27 23:02:19;;;;;;;14.07;9.17;;;5.00;99.90;;;;;;5049640;28;20648;-78
2022/11/27 23:04:44;;;;;;;12.70;7.87;;;5.00;99.90;;;;;;5050952;28;20198;-78
2022/11/27 23:07:10;;;;;;;13.33;8.23;;;4.90;99.90;;;;;;5049051;28;20178;-78
2022/11/27 23:09:36;;;;;;;11.00;8.23;;;5.00;99.90;;;;;;5050923;28;20288;-79
2022/11/27 23:12:02;;;;;;;11.33;8.30;;;5.00;99.90;;;;;;5047804;28;20193;-78
2022/11/27 23:14:27;;;;;;;11.30;7.83;;;5.00;99.90;;;;;;5049070;28;20194;-79
2022/11/27 23:16:53;;;;;;;11.13;8.17;;;5.00;99.90;;;;;;5050492;28;20183;-79
2022/11/27 23:19:19;;;;;;;10.03;7.40;;;5.00;99.90;;;;;;5048916;28;20191;-78
2022/11/27 23:21:45;;;;;;;12.07;8.10;;;5.00;99.90;;;;;;5050859;28;20186;-79
2022/11/27 23:24:14;;;;;;;10.03;7.13;;;5.00;99.90;;;;;;5050057;28;20248;-79